This is the latest recevied weather packets stored in our database for station/object TA3HRJ-12. If no packets are shown the sender has not sent any weather packets the latest 10 day(s).
| Time | Temp. | Humidity | Pressure | Rain* | Wind** | Luminosity | Snow |
|---|---|---|---|---|---|---|---|
| 1778181955 | 22.22° C | 25% | 1031.8 hPa | - | - | - | - |
| 1778181055 | 22.78° C | 25% | 1031.7 hPa | - | - | - | - |
| 1778180155 | 23.33° C | 24% | 1031.7 hPa | - | - | - | - |
| 1778179254 | 24.44° C | 23% | 1031.7 hPa | - | - | - | - |
| 1778178354 | 24.44° C | 23% | 1031.6 hPa | - | - | - | - |
| 1778177454 | 24.44° C | 22% | 1031.5 hPa | - | - | - | - |
| 1778176554 | 24.44° C | 22% | 1031.4 hPa | - | - | - | - |
| 1778175654 | 25° C | 21% | 1031.2 hPa | - | - | - | - |
| 1778174754 | 25° C | 21% | 1031.1 hPa | - | - | - | - |
| 1778173853 | 25.56° C | 20% | 1031 hPa | - | - | - | - |
| 1778172953 | 26.11° C | 19% | 1031.1 hPa | - | - | - | - |
| 1778172053 | 26.11° C | 18% | 1031 hPa | - | - | - | - |
| 1778171153 | 28.33° C | 15% | 1030.8 hPa | - | - | - | - |
| 1778170253 | 32.22° C | 12% | 1030.6 hPa | - | - | - | - |
| 1778169353 | 43.89° C | 5% | 1030.4 hPa | - | - | - | - |
| 1778168453 | 52.22° C | 2% | 1030.3 hPa | - | - | - | - |
| 1778167553 | 53.33° C | 2% | 1030.3 hPa | - | - | - | - |
| 1778166653 | 55° C | 1% | 1030.3 hPa | - | - | - | - |
| 1778165752 | 54.44° C | 1% | 1030.4 hPa | - | - | - | - |
| 1778164852 | 55° C | 1% | 1030.5 hPa | - | - | - | - |
| 1778163952 | 55.56° C | 1% | 1030.5 hPa | - | - | - | - |
| 1778163052 | 56.11° C | 2% | 1030.6 hPa | - | - | - | - |
| 1778162152 | 50.56° C | 3% | 1030.5 hPa | - | - | - | - |
| 1778161252 | 53.89° C | 2% | 1030.5 hPa | - | - | - | - |
| 1778160352 | 36.67° C | 11% | 1031 hPa | - | - | - | - |
* Rain since midnight (hover to see other rain measurements)
** Current wind speed in m/s (hover to see current wind gust speed)